Time;durP1;ratioP1;P1;durP2;ratioP2;P2;SDS_P1;SDS_P2;PMS_P1;PMS_P2;Temp;Humidity;BMP_temperature;BMP_pressure;BME280_temperature;BME280_humidity;BME280_pressure;Samples;Min_cycle;Max_cycle;Signal;HPM_P1;HPM_P2
2022/05/02 00:00:21;;;;;;;16.40;14.73;;;9.70;99.90;;;;;;5052772;28;20212;-63
2022/05/02 00:02:48;;;;;;;16.13;14.67;;;9.60;99.90;;;;;;5052786;28;20267;-63
2022/05/02 00:05:15;;;;;;;16.63;14.93;;;9.60;99.90;;;;;;5052637;28;20241;-59
2022/05/02 00:07:42;;;;;;;15.83;14.17;;;9.60;99.90;;;;;;5052748;28;20201;-60
2022/05/02 00:10:11;;;;;;;15.43;14.03;;;9.50;99.90;;;;;;5052606;28;20196;-60
2022/05/02 00:12:39;;;;;;;16.03;14.53;;;9.40;99.90;;;;;;5052248;28;20723;-60
2022/05/02 00:15:07;;;;;;;16.00;14.50;;;9.40;99.90;;;;;;5052714;28;20208;-60
2022/05/02 00:20:18;;;;;;;15.63;14.13;;;9.20;99.90;;;;;;5052155;28;20186;-60
2022/05/02 00:22:46;;;;;;;17.03;15.30;;;9.10;99.90;;;;;;5052462;28;20200;-59
2022/05/02 00:25:14;;;;;;;17.03;15.33;;;9.10;99.90;;;;;;5052510;28;20200;-61
2022/05/02 00:27:42;;;;;;;17.47;15.77;;;9.20;99.90;;;;;;5052532;28;20200;-61
2022/05/02 00:30:10;;;;;;;16.33;14.73;;;9.20;99.90;;;;;;5052291;28;20219;-61
2022/05/02 00:32:38;;;;;;;16.00;14.60;;;9.20;99.90;;;;;;5052370;28;20249;-61
2022/05/02 00:35:06;;;;;;;16.77;15.13;;;9.30;99.90;;;;;;5052481;28;20196;-60
2022/05/02 00:37:33;;;;;;;16.07;14.47;;;9.30;99.90;;;;;;5051833;28;20223;-60
2022/05/02 00:40:00;;;;;;;16.53;14.77;;;9.30;99.90;;;;;;5052224;28;20196;-61
2022/05/02 00:42:29;;;;;;;16.80;15.10;;;9.30;99.90;;;;;;5051919;28;20654;-61
2022/05/02 00:44:56;;;;;;;17.10;15.43;;;9.30;99.90;;;;;;5052290;28;20199;-61
2022/05/02 00:47:23;;;;;;;16.50;14.90;;;9.20;99.90;;;;;;5051867;28;20657;-61
2022/05/02 00:49:50;;;;;;;16.57;14.97;;;9.20;99.90;;;;;;5051949;28;20196;-61
2022/05/02 00:52:18;;;;;;;16.80;15.20;;;9.10;99.90;;;;;;5051848;28;20654;-61
2022/05/02 00:54:46;;;;;;;17.07;15.33;;;9.10;99.90;;;;;;5052106;28;20214;-61
2022/05/02 00:57:14;;;;;;;16.63;15.03;;;9.10;99.90;;;;;;5052247;28;20220;-61
2022/05/02 00:59:46;;;;;;;16.80;15.10;;;9.10;99.90;;;;;;5052588;28;20613;-61
2022/05/02 01:02:15;;;;;;;15.97;14.47;;;9.10;99.90;;;;;;5053012;28;20212;-61
2022/05/02 01:04:42;;;;;;;15.97;14.37;;;9.10;99.90;;;;;;5052085;28;20253;-61
2022/05/02 01:07:11;;;;;;;16.73;15.13;;;9.10;99.90;;;;;;5053693;28;20258;-61
2022/05/02 01:09:41;;;;;;;17.93;16.23;;;9.10;99.90;;;;;;5052683;28;20196;-61
2022/05/02 01:12:11;;;;;;;18.13;16.30;;;9.00;99.90;;;;;;5052043;28;20183;-61
2022/05/02 01:14:39;;;;;;;18.27;16.57;;;9.00;99.90;;;;;;5051621;28;20212;-61
2022/05/02 01:17:08;;;;;;;17.47;15.87;;;8.90;99.90;;;;;;5051914;28;20200;-61
2022/05/02 01:19:35;;;;;;;17.83;16.13;;;8.80;99.90;;;;;;5051866;28;20253;-60
2022/05/02 01:22:05;;;;;;;19.07;17.23;;;8.70;99.90;;;;;;5051893;28;20204;-61
2022/05/02 01:24:37;;;;;;;17.90;16.00;;;8.70;99.90;;;;;;5051944;28;20198;-61
2022/05/02 01:27:05;;;;;;;19.30;17.37;;;8.60;99.90;;;;;;5051912;28;20218;-61
2022/05/02 01:29:33;;;;;;;18.77;16.97;;;8.60;99.90;;;;;;5051726;28;20200;-61
2022/05/02 01:32:01;;;;;;;18.80;16.47;;;8.50;99.90;;;;;;5051761;28;20198;-61
2022/05/02 01:34:28;;;;;;;18.87;17.07;;;8.50;99.90;;;;;;5051719;28;20214;-61
2022/05/02 01:36:56;;;;;;;19.07;17.10;;;8.40;99.90;;;;;;5051719;28;20269;-61
2022/05/02 01:39:24;;;;;;;19.90;18.00;;;8.40;99.90;;;;;;5051680;28;20222;-61
2022/05/02 01:41:51;;;;;;;19.77;17.93;;;8.40;99.90;;;;;;5051366;28;20800;-61
2022/05/02 01:44:18;;;;;;;19.80;17.73;;;8.30;99.90;;;;;;5051694;28;20192;-61
2022/05/02 01:46:45;;;;;;;20.10;18.17;;;8.30;99.90;;;;;;5051276;28;20656;-61
2022/05/02 01:49:12;;;;;;;21.90;19.57;;;8.30;99.90;;;;;;5051539;28;20207;-61
2022/05/02 01:51:40;;;;;;;20.30;18.30;;;8.30;99.90;;;;;;5051351;28;20729;-61
2022/05/02 01:54:07;;;;;;;21.77;19.47;;;8.20;99.90;;;;;;5051625;28;20198;-61
2022/05/02 01:56:35;;;;;;;22.30;19.90;;;8.20;99.90;;;;;;5051848;28;20297;-61
2022/05/02 01:59:02;;;;;;;21.17;19.13;;;8.10;99.90;;;;;;5051447;28;20217;-61
2022/05/02 02:01:29;;;;;;;21.93;19.80;;;8.10;99.90;;;;;;5053324;28;20202;-61
2022/05/02 02:03:56;;;;;;;20.57;18.47;;;8.10;99.90;;;;;;5055054;28;20203;-60
2022/05/02 02:06:22;;;;;;;21.70;19.60;;;8.00;99.90;;;;;;5056038;28;20252;-61
2022/05/02 02:08:50;;;;;;;22.80;20.37;;;7.90;99.90;;;;;;5055083;28;20194;-61
2022/05/02 02:11:17;;;;;;;22.60;20.27;;;7.90;99.90;;;;;;5054959;28;20214;-62
2022/05/02 02:13:46;;;;;;;22.67;20.47;;;7.80;99.90;;;;;;5054743;28;20297;-61
2022/05/02 02:16:13;;;;;;;22.53;20.23;;;7.80;99.90;;;;;;5054859;28;20196;-61
2022/05/02 02:18:42;;;;;;;21.73;19.63;;;7.70;99.90;;;;;;5054754;28;20270;-61
2022/05/02 02:21:10;;;;;;;23.60;21.03;;;7.70;99.90;;;;;;5054814;28;20211;-61
2022/05/02 02:23:39;;;;;;;21.93;19.73;;;7.70;99.90;;;;;;5055069;28;20206;-61
2022/05/02 02:26:07;;;;;;;23.57;20.73;;;7.70;99.90;;;;;;5054669;28;20206;-62
2022/05/02 02:28:34;;;;;;;23.23;20.50;;;7.70;99.90;;;;;;5054321;28;20711;-61
2022/05/02 02:31:02;;;;;;;22.43;20.03;;;7.60;99.90;;;;;;5054697;28;20242;-61
2022/05/02 02:33:29;;;;;;;22.57;20.27;;;7.60;99.90;;;;;;5054548;28;20218;-61
2022/05/02 02:35:56;;;;;;;22.20;19.97;;;7.60;99.90;;;;;;5054536;28;20276;-61
2022/05/02 02:38:24;;;;;;;23.50;21.13;;;7.50;99.90;;;;;;5054240;28;20841;-61
2022/05/02 02:40:51;;;;;;;22.53;20.33;;;7.50;99.90;;;;;;5057202;28;20197;-61
2022/05/02 02:43:18;;;;;;;23.13;20.63;;;7.50;99.90;;;;;;5054995;28;20533;-61
2022/05/02 02:45:45;;;;;;;23.53;20.97;;;7.50;99.90;;;;;;5054461;28;20243;-61
2022/05/02 02:48:13;;;;;;;21.90;19.80;;;7.50;99.90;;;;;;5054288;28;20198;-61
2022/05/02 02:50:41;;;;;;;22.20;19.90;;;7.50;99.90;;;;;;5054326;28;20224;-62
2022/05/02 02:53:08;;;;;;;22.17;20.07;;;7.50;99.90;;;;;;5054336;28;20202;-61
2022/05/02 02:55:35;;;;;;;23.87;21.07;;;7.50;99.90;;;;;;5054035;28;20209;-62
2022/05/02 02:58:02;;;;;;;22.63;20.33;;;7.40;99.90;;;;;;5053834;28;20225;-61
2022/05/02 03:00:30;;;;;;;22.50;20.20;;;7.50;99.90;;;;;;5053951;28;20719;-61
2022/05/02 03:02:57;;;;;;;22.67;20.27;;;7.50;99.90;;;;;;5054797;28;20664;-61
2022/05/02 03:08:10;;;;;;;24.90;21.53;;;7.40;99.90;;;;;;5053848;28;20656;-61
2022/05/02 03:10:38;;;;;;;23.20;20.87;;;7.50;99.90;;;;;;5053849;28;20205;-61
2022/05/02 03:13:05;;;;;;;22.30;20.13;;;7.40;99.90;;;;;;5052537;28;20664;-61
2022/05/02 03:15:33;;;;;;;23.10;21.00;;;7.40;99.90;;;;;;5053807;28;20215;-61
2022/05/02 03:18:00;;;;;;;21.37;19.27;;;7.40;99.90;;;;;;5053753;28;20230;-61
2022/05/02 03:20:28;;;;;;;23.00;20.67;;;7.40;99.90;;;;;;5053799;28;20203;-61
2022/05/02 03:22:55;;;;;;;24.17;21.03;;;7.30;99.90;;;;;;5053666;28;20210;-61
2022/05/02 03:25:22;;;;;;;23.17;19.80;;;7.20;99.90;;;;;;5053265;28;20199;-61
2022/05/02 03:27:49;;;;;;;22.70;20.50;;;7.20;99.90;;;;;;5053332;28;20203;-61
2022/05/02 03:30:16;;;;;;;24.27;21.40;;;7.00;99.90;;;;;;5053507;28;20198;-61
2022/05/02 03:32:43;;;;;;;28.50;20.73;;;7.00;99.90;;;;;;5053360;28;20223;-61
2022/05/02 03:35:10;;;;;;;39.17;23.03;;;7.00;99.90;;;;;;5053054;28;20213;-61
2022/05/02 03:37:38;;;;;;;34.93;22.23;;;7.00;99.90;;;;;;5053257;28;20201;-61
2022/05/02 03:40:06;;;;;;;30.90;20.80;;;7.00;99.90;;;;;;5053273;28;20198;-61
2022/05/02 03:42:34;;;;;;;23.77;21.00;;;7.00;99.90;;;;;;5053323;28;20198;-61
2022/05/02 03:45:01;;;;;;;24.53;21.37;;;7.00;99.90;;;;;;5053029;28;20674;-61
2022/05/02 03:47:28;;;;;;;23.67;21.17;;;7.00;99.90;;;;;;5053248;28;20597;-61
2022/05/02 03:49:55;;;;;;;23.90;21.30;;;6.90;99.90;;;;;;5053150;28;20194;-61
2022/05/02 03:52:23;;;;;;;24.00;21.57;;;6.90;99.90;;;;;;5053590;28;20563;-63
2022/05/02 03:54:51;;;;;;;24.17;21.53;;;6.90;99.90;;;;;;5053516;28;20241;-66
2022/05/02 03:57:18;;;;;;;24.53;21.23;;;6.90;99.90;;;;;;5053164;28;20206;-63
2022/05/02 03:59:47;;;;;;;24.57;21.97;;;6.90;99.90;;;;;;5054199;28;20212;-61
2022/05/02 04:02:14;;;;;;;24.83;21.63;;;6.80;99.90;;;;;;5054207;28;20224;-61
2022/05/02 04:04:41;;;;;;;23.47;21.00;;;6.90;99.90;;;;;;5054595;28;20209;-61
2022/05/02 04:07:09;;;;;;;23.27;20.77;;;6.80;99.90;;;;;;5055280;28;20243;-61
2022/05/02 04:09:36;;;;;;;23.27;20.77;;;6.80;99.90;;;;;;5053929;28;20212;-62
2022/05/02 04:12:06;;;;;;;23.47;20.40;;;6.70;99.90;;;;;;5053067;28;20679;-61
2022/05/02 04:14:35;;;;;;;22.97;20.67;;;6.70;99.90;;;;;;5053612;28;20185;-61
2022/05/02 04:17:03;;;;;;;26.03;21.57;;;6.70;99.90;;;;;;5053985;28;20670;-60
2022/05/02 04:19:30;;;;;;;24.97;21.10;;;6.70;99.90;;;;;;5053775;28;20323;-61
2022/05/02 04:21:57;;;;;;;25.00;21.80;;;6.80;99.90;;;;;;5053131;28;20671;-60
2022/05/02 04:24:24;;;;;;;25.83;21.80;;;6.80;99.90;;;;;;5054171;28;20207;-62
2022/05/02 04:26:52;;;;;;;24.93;22.10;;;6.80;99.90;;;;;;5053285;28;20658;-61
2022/05/02 04:29:20;;;;;;;23.97;21.50;;;6.90;99.90;;;;;;5052302;28;20212;-61
2022/05/02 04:31:47;;;;;;;23.20;20.77;;;6.90;99.90;;;;;;5052912;28;20200;-60
2022/05/02 04:34:14;;;;;;;25.10;22.13;;;6.90;99.90;;;;;;5053276;28;20192;-60
2022/05/02 04:36:41;;;;;;;25.33;20.93;;;6.90;99.90;;;;;;5052981;28;20211;-60
2022/05/02 04:39:09;;;;;;;23.57;21.10;;;6.90;99.90;;;;;;5052657;28;20211;-59
2022/05/02 04:41:36;;;;;;;22.70;20.53;;;7.00;99.90;;;;;;5053453;28;20300;-60
2022/05/02 04:44:03;;;;;;;22.67;20.37;;;7.00;99.90;;;;;;5052924;28;20238;-60
2022/05/02 04:46:32;;;;;;;22.70;20.20;;;7.00;99.90;;;;;;5053061;28;20296;-60
2022/05/02 04:48:59;;;;;;;23.13;20.63;;;7.00;99.90;;;;;;5052167;28;20191;-60
2022/05/02 04:51:26;;;;;;;24.37;21.80;;;7.10;99.90;;;;;;5052033;28;20258;-61
2022/05/02 04:53:53;;;;;;;22.50;20.20;;;7.10;99.90;;;;;;5052844;28;20198;-61
2022/05/02 04:56:21;;;;;;;39.37;21.17;;;7.10;99.90;;;;;;5052779;28;20228;-67
2022/05/02 04:58:48;;;;;;;33.63;20.87;;;7.20;99.90;;;;;;5051715;28;20219;-62
2022/05/02 05:01:15;;;;;;;36.40;22.23;;;7.20;99.90;;;;;;5051963;28;20201;-60
2022/05/02 05:03:43;;;;;;;25.43;20.57;;;7.20;99.90;;;;;;5051788;28;20667;-59
2022/05/02 05:06:10;;;;;;;23.23;20.63;;;7.20;99.90;;;;;;5051740;28;20240;-60
2022/05/02 05:08:37;;;;;;;22.07;19.67;;;7.30;99.90;;;;;;5050696;28;20202;-60
2022/05/02 05:11:27;;;;;;;23.47;19.87;;;7.30;99.90;;;;;;5051674;28;20594;-60
2022/05/02 05:17:01;;;;;;;26.90;19.90;;;7.50;99.90;;;;;;5051687;28;20648;-60
2022/05/02 05:19:55;;;;;;;20.27;18.17;;;7.80;99.90;;;;;;5051359;28;20207;-60
2022/05/02 05:22:30;;;;;;;20.00;18.00;;;8.30;99.90;;;;;;5050846;28;20634;-60
2022/05/02 05:25:36;;;;;;;20.87;18.70;;;8.70;99.90;;;;;;5051558;28;20187;-61
2022/05/02 05:28:21;;;;;;;19.53;17.63;;;9.00;99.90;;;;;;5051932;28;20176;-61
2022/05/02 05:30:50;;;;;;;20.97;17.97;;;9.20;99.90;;;;;;5050373;28;20275;-61
2022/05/02 05:33:25;;;;;;;20.77;18.53;;;9.30;99.90;;;;;;5050670;28;20251;-60
2022/05/02 05:36:03;;;;;;;20.13;17.93;;;9.10;99.90;;;;;;5052813;28;20192;-60
2022/05/02 05:38:39;;;;;;;19.87;17.70;;;9.10;99.90;;;;;;5055254;28;20670;-61
2022/05/02 05:41:16;;;;;;;18.33;16.43;;;9.10;99.90;;;;;;5055461;28;20192;-61
2022/05/02 05:43:55;;;;;;;22.63;17.67;;;9.20;99.90;;;;;;5055087;28;20177;-61
2022/05/02 05:46:40;;;;;;;19.00;17.20;;;9.20;99.90;;;;;;5054128;28;20190;-61
2022/05/02 05:49:15;;;;;;;19.47;17.33;;;9.30;99.90;;;;;;5054273;28;20175;-61
2022/05/02 05:51:49;;;;;;;35.63;18.43;;;9.70;99.90;;;;;;5055280;28;20239;-61
2022/05/02 05:54:31;;;;;;;68.07;21.30;;;10.20;99.90;;;;;;5055186;28;20190;-61
2022/05/02 05:57:04;;;;;;;28.37;16.90;;;10.60;99.90;;;;;;5054646;28;20647;-62
2022/05/02 05:59:48;;;;;;;18.83;16.77;;;11.10;99.90;;;;;;5053065;28;20306;-61
2022/05/02 06:02:19;;;;;;;18.37;16.47;;;11.60;99.90;;;;;;5053785;28;21109;-61
2022/05/02 06:04:50;;;;;;;16.70;15.00;;;11.80;99.90;;;;;;5054874;28;20698;-61
2022/05/02 06:07:20;;;;;;;17.33;15.63;;;12.10;99.90;;;;;;5054736;28;20188;-61
2022/05/02 06:09:49;;;;;;;17.27;15.67;;;12.30;99.90;;;;;;5054887;28;20534;-62
2022/05/02 06:12:21;;;;;;;17.93;16.03;;;12.30;99.90;;;;;;5054359;28;20200;-61
2022/05/02 06:20:23;;;;;;;17.53;15.67;;;13.00;99.90;;;;;;5054370;28;20783;-61
2022/05/02 06:22:52;;;;;;;16.93;15.43;;;13.00;99.90;;;;;;5053683;28;20618;-61
2022/05/02 06:25:21;;;;;;;15.67;14.23;;;13.20;99.90;;;;;;5054319;28;20211;-63
2022/05/02 06:27:49;;;;;;;17.40;15.43;;;13.60;99.90;;;;;;5054474;28;20261;-62
2022/05/02 06:30:17;;;;;;;16.70;14.87;;;13.80;99.90;;;;;;5054066;28;20281;-63
2022/05/02 06:32:45;;;;;;;15.43;13.87;;;13.90;99.90;;;;;;5054151;28;20193;-62
2022/05/02 06:35:12;;;;;;;15.60;14.20;;;14.00;99.90;;;;;;5053838;28;20211;-61
2022/05/02 06:37:48;;;;;;;16.30;14.60;;;14.60;99.90;;;;;;5054180;28;20238;-62
2022/05/02 06:40:28;;;;;;;15.33;13.93;;;14.80;99.90;;;;;;5053637;28;20557;-61
2022/05/02 06:43:04;;;;;;;15.63;14.07;;;14.80;99.90;;;;;;5053978;28;20183;-62
2022/05/02 06:45:38;;;;;;;16.07;14.47;;;14.80;90.80;;;;;;5053747;28;20195;-62
2022/05/02 06:48:29;;;;;;;14.77;13.53;;;14.80;75.40;;;;;;5053669;28;20185;-62
2022/05/02 06:51:00;;;;;;;15.20;13.70;;;14.90;61.00;;;;;;5054014;28;20596;-62
2022/05/02 06:54:07;;;;;;;14.83;13.33;;;15.30;49.80;;;;;;5054006;28;20536;-62
2022/05/02 06:56:42;;;;;;;15.77;13.60;;;15.20;35.70;;;;;;5041618;28;20207;-62
2022/05/02 06:59:35;;;;;;;14.67;13.37;;;15.10;23.10;;;;;;5053113;28;20218;-62
2022/05/02 07:02:24;;;;;;;18.73;13.50;;;15.60;27.30;;;;;;5052774;28;20191;-64
2022/05/02 07:04:52;;;;;;;17.03;13.17;;;16.20;14.30;;;;;;5052530;28;20188;-61
2022/05/02 07:07:42;;;;;;;14.53;13.10;;;16.40;2.00;;;;;;5053386;28;20240;-61
2022/05/02 07:10:13;;;;;;;12.83;11.57;;;16.20;1.00;;;;;;5053707;28;20207;-61
2022/05/02 07:12:49;;;;;;;13.90;12.47;;;16.80;1.00;;;;;;5052920;28;20221;-62
2022/05/02 07:15:23;;;;;;;13.87;12.17;;;17.20;1.00;;;;;;5053606;28;20241;-61
2022/05/02 07:18:05;;;;;;;14.03;12.60;;;17.60;1.00;;;;;;5053424;28;20224;-60
2022/05/02 07:20:55;;;;;;;14.43;13.05;;;17.50;1.00;;;;;;5053427;28;20217;-60
2022/05/02 07:23:48;;;;;;;15.80;13.30;;;17.40;1.00;;;;;;5050298;28;20625;-61
2022/05/02 07:26:17;;;;;;;13.07;11.82;;;17.40;1.00;;;;;;5052927;28;20176;-61
2022/05/02 07:28:47;;;;;;;13.40;12.20;;;18.10;1.00;;;;;;5052937;28;20770;-61
2022/05/02 07:31:18;;;;;;;12.82;11.73;;;18.20;1.00;;;;;;5053354;28;20176;-61
2022/05/02 07:33:47;;;;;;;12.90;11.60;;;18.20;1.00;;;;;;5052898;28;20640;-61
2022/05/02 07:36:17;;;;;;;14.85;13.40;;;18.30;1.00;;;;;;5053134;28;20203;-61
2022/05/02 07:38:47;;;;;;;14.45;13.10;;;18.80;1.00;;;;;;5053170;28;20215;-60
2022/05/02 07:41:26;;;;;;;13.27;12.07;;;18.90;1.00;;;;;;5052987;28;20280;-61
2022/05/02 07:44:01;;;;;;;12.52;11.30;;;18.90;1.00;;;;;;5052276;28;20202;-61
2022/05/02 07:46:32;;;;;;;13.27;11.98;;;19.20;1.00;;;;;;5052408;28;20233;-61
2022/05/02 07:49:02;;;;;;;13.93;12.52;;;19.00;1.00;;;;;;5052413;28;20563;-61
2022/05/02 07:51:30;;;;;;;13.15;12.00;;;19.10;1.00;;;;;;5051967;28;20660;-62
2022/05/02 07:53:59;;;;;;;13.20;10.70;;;19.20;1.00;;;;;;5052460;28;20194;-62
2022/05/02 07:56:27;;;;;;;13.27;12.07;;;19.70;1.00;;;;;;5052206;28;20191;-63
2022/05/02 07:58:57;;;;;;;11.55;10.45;;;19.70;1.00;;;;;;5048716;28;20203;-62
2022/05/02 08:01:26;;;;;;;12.68;11.50;;;19.60;1.00;;;;;;5052486;28;20564;-62
2022/05/02 08:03:54;;;;;;;13.35;10.82;;;19.70;1.00;;;;;;5049225;28;20641;-62
2022/05/02 08:06:53;;;;;;;11.98;10.82;;;20.10;1.00;;;;;;5051862;28;20265;-63
2022/05/02 08:09:55;;;;;;;12.57;11.35;;;20.30;1.00;;;;;;5049886;28;20179;-63
2022/05/02 08:12:27;;;;;;;17.83;12.02;;;19.70;1.00;;;;;;5050792;28;20197;-63
2022/05/02 08:15:02;;;;;;;12.20;11.10;;;19.80;1.00;;;;;;5049514;28;20188;-63
2022/05/02 08:17:41;;;;;;;12.32;11.32;;;19.50;1.00;;;;;;5051884;28;20219;-63
2022/05/02 08:20:15;;;;;;;12.15;10.95;;;19.90;1.00;;;;;;5052083;28;20299;-63
2022/05/02 08:28:54;;;;;;;14.32;11.85;;;20.60;1.00;;;;;;5009316;28;20283;-63
2022/05/02 08:31:34;;;;;;;12.30;10.90;;;20.60;1.00;;;;;;5009819;28;20223;-62
2022/05/02 08:34:27;;;;;;;10.43;9.43;;;20.30;1.00;;;;;;5009799;28;20196;-62
2022/05/02 08:37:03;;;;;;;11.57;10.70;;;20.60;1.00;;;;;;5009377;28;20217;-62
2022/05/02 08:39:37;;;;;;;11.43;10.15;;;20.50;1.00;;;;;;5009709;28;20208;-62
2022/05/02 08:42:41;;;;;;;9.82;8.82;;;20.40;1.00;;;;;;5009664;28;20524;-62
2022/05/02 08:45:45;;;;;;;10.10;9.27;;;20.90;1.00;;;;;;5003404;28;20625;-62
2022/05/02 08:48:44;;;;;;;9.70;8.80;;;20.50;1.00;;;;;;5009638;28;20247;-62
2022/05/02 08:51:55;;;;;;;10.38;9.57;;;20.90;1.00;;;;;;5006946;28;20304;-62
2022/05/02 08:54:59;;;;;;;11.50;10.45;;;21.10;1.00;;;;;;5009688;28;20193;-62
2022/05/02 08:58:08;;;;;;;11.68;10.57;;;20.90;1.00;;;;;;5042434;28;20199;-62
2022/05/02 09:00:51;;;;;;;11.32;10.23;;;20.70;1.00;;;;;;5036336;28;20223;-62
2022/05/02 09:03:43;;;;;;;10.70;9.60;;;20.60;1.00;;;;;;5051926;28;20282;-61
2022/05/02 09:06:47;;;;;;;11.52;10.40;;;20.90;1.00;;;;;;5051397;28;20380;-62
2022/05/02 09:09:57;;;;;;;12.68;11.48;;;21.10;1.00;;;;;;5048283;28;20231;-61
2022/05/02 09:12:56;;;;;;;10.60;9.70;;;20.90;1.00;;;;;;5055309;28;20195;-62
2022/05/02 09:16:01;;;;;;;12.50;11.10;;;21.10;1.00;;;;;;5055795;28;20192;-62
2022/05/02 09:19:08;;;;;;;10.80;9.80;;;21.20;1.00;;;;;;5040123;28;20668;-62
2022/05/02 09:21:59;;;;;;;12.23;11.13;;;21.40;1.00;;;;;;4993616;28;20229;-62
2022/05/02 09:24:55;;;;;;;10.75;9.85;;;22.10;1.00;;;;;;4992543;28;20807;-63
2022/05/02 09:27:36;;;;;;;11.15;10.20;;;22.00;1.00;;;;;;4993364;28;20185;-62
2022/05/02 09:30:19;;;;;;;11.32;10.32;;;21.90;1.00;;;;;;4993209;28;20186;-62
2022/05/02 09:32:48;;;;;;;11.50;10.50;;;22.20;1.00;;;;;;4993550;28;20746;-62
2022/05/02 09:35:19;;;;;;;12.50;11.20;;;21.60;1.00;;;;;;4993560;28;20202;-62
2022/05/02 09:37:57;;;;;;;11.32;10.23;;;21.40;1.00;;;;;;4993568;28;20213;-62
2022/05/02 09:40:36;;;;;;;12.02;10.77;;;22.50;1.00;;;;;;4993283;28;20248;-63
2022/05/02 09:49:51;;;;;;;11.98;10.80;;;22.20;1.00;;;;;;4935179;29;20236;-62
2022/05/02 09:52:29;;;;;;;11.23;10.13;;;22.70;1.00;;;;;;4927270;29;20267;-62
2022/05/02 09:58:08;;;;;;;11.45;10.30;;;22.30;1.00;;;;;;4978423;28;20354;-63
2022/05/02 10:01:08;;;;;;;12.70;11.68;;;22.60;1.00;;;;;;4992953;28;20308;-62
2022/05/02 10:03:38;;;;;;;14.45;13.23;;;22.50;1.00;;;;;;4993124;28;20186;-62
2022/05/02 10:06:08;;;;;;;14.55;13.27;;;22.90;1.00;;;;;;4992871;28;20237;-62
2022/05/02 10:08:58;;;;;;;13.77;12.40;;;23.10;1.00;;;;;;4992962;28;20237;-63
2022/05/02 10:12:02;;;;;;;13.75;11.82;;;23.00;1.00;;;;;;4993010;28;20277;-62
2022/05/02 10:14:50;;;;;;;12.73;11.63;;;22.60;1.00;;;;;;4984399;28;20213;-64
2022/05/02 10:17:45;;;;;;;16.17;14.77;;;22.70;1.00;;;;;;4992830;28;20651;-62
2022/05/02 10:20:18;;;;;;;14.95;13.55;;;23.00;1.00;;;;;;4992700;28;20214;-62
2022/05/02 10:22:58;;;;;;;12.52;11.43;;;22.20;1.00;;;;;;5048538;28;20210;-62
2022/05/02 10:25:36;;;;;;;14.30;13.05;;;23.20;1.00;;;;;;5054496;28;20187;-63
2022/05/02 10:28:14;;;;;;;13.43;12.32;;;22.70;1.00;;;;;;5054591;28;20202;-62
2022/05/02 10:30:54;;;;;;;14.50;13.23;;;22.80;1.00;;;;;;5054540;28;20202;-63
2022/05/02 10:33:31;;;;;;;12.88;11.68;;;23.60;1.00;;;;;;5054425;28;20187;-62
2022/05/02 10:36:00;;;;;;;12.40;11.30;;;23.40;1.00;;;;;;5054343;28;20199;-62
2022/05/02 10:38:29;;;;;;;12.95;11.85;;;23.50;1.00;;;;;;5054190;28;20290;-62
2022/05/02 10:41:06;;;;;;;12.10;11.10;;;23.20;1.00;;;;;;5053901;28;20223;-62
2022/05/02 10:43:37;;;;;;;12.68;11.68;;;23.40;1.00;;;;;;5054306;28;20198;-63
2022/05/02 10:46:04;;;;;;;12.43;11.30;;;23.20;1.00;;;;;;5054268;28;20212;-62
2022/05/02 10:48:41;;;;;;;12.75;11.73;;;23.40;1.00;;;;;;5053874;28;20203;-62
2022/05/02 10:51:13;;;;;;;12.13;11.10;;;23.50;1.00;;;;;;5053991;28;20202;-62
2022/05/02 10:53:59;;;;;;;13.68;12.30;;;24.00;1.00;;;;;;5054029;28;20172;-62
2022/05/02 10:56:35;;;;;;;14.63;13.32;;;23.70;1.00;;;;;;5053904;28;20188;-63
2022/05/02 10:59:04;;;;;;;12.90;11.70;;;23.80;1.00;;;;;;5053908;28;20180;-62
2022/05/02 11:02:05;;;;;;;13.20;12.05;;;23.70;1.00;;;;;;5053829;28;20315;-62
2022/05/02 11:04:59;;;;;;;13.50;12.15;;;23.40;1.00;;;;;;5053979;28;20568;-62
2022/05/02 11:07:30;;;;;;;12.70;11.57;;;23.50;1.00;;;;;;5053402;28;20236;-61
2022/05/02 11:10:05;;;;;;;13.05;11.85;;;24.00;1.00;;;;;;5053356;28;20216;-62
2022/05/02 11:12:37;;;;;;;12.98;11.82;;;24.10;1.00;;;;;;5053709;28;20180;-62
2022/05/02 11:15:06;;;;;;;12.75;10.65;;;23.80;1.00;;;;;;5053606;28;20180;-62
2022/05/02 11:17:51;;;;;;;11.88;10.75;;;23.90;1.00;;;;;;5053553;28;20222;-62
2022/05/02 11:23:24;;;;;;;14.80;12.73;;;24.40;1.00;;;;;;5053155;28;20777;-62
2022/05/02 11:26:05;;;;;;;13.05;11.80;;;24.30;1.00;;;;;;5053439;28;20266;-63
2022/05/02 11:28:38;;;;;;;12.30;11.27;;;24.30;1.00;;;;;;5053267;28;20179;-62
2022/05/02 11:31:17;;;;;;;13.93;12.63;;;24.60;1.00;;;;;;5052871;28;20628;-62
2022/05/02 11:33:54;;;;;;;12.55;11.32;;;24.80;1.00;;;;;;5051883;28;20662;-62
2022/05/02 11:36:26;;;;;;;13.60;12.32;;;24.60;1.00;;;;;;5052883;28;20635;-62
2022/05/02 11:39:00;;;;;;;12.77;11.70;;;24.50;1.00;;;;;;5053118;28;20194;-62
2022/05/02 11:41:31;;;;;;;12.60;11.50;;;24.30;1.00;;;;;;5052968;28;20247;-62
2022/05/02 11:44:10;;;;;;;12.15;11.15;;;24.50;1.00;;;;;;5053013;28;20210;-63
2022/05/02 11:46:55;;;;;;;13.07;11.85;;;24.70;1.00;;;;;;5052991;28;20184;-62
2022/05/02 11:49:37;;;;;;;12.85;11.75;;;25.00;1.00;;;;;;5052736;28;20183;-62
2022/05/02 11:52:09;;;;;;;13.10;12.02;;;24.80;1.00;;;;;;5052931;28;20534;-62
2022/05/02 11:54:39;;;;;;;13.55;12.38;;;24.70;1.00;;;;;;5052797;28;20194;-62
2022/05/02 11:57:22;;;;;;;12.88;11.85;;;24.20;1.00;;;;;;5052767;28;20195;-62
2022/05/02 11:59:58;;;;;;;12.65;11.52;;;24.70;1.00;;;;;;5052756;28;20266;-62
2022/05/02 12:02:51;;;;;;;14.45;13.15;;;24.40;1.00;;;;;;5052625;28;20204;-62
2022/05/02 12:05:24;;;;;;;14.10;12.77;;;24.30;1.00;;;;;;5052604;28;20328;-61
2022/05/02 12:07:54;;;;;;;14.75;13.23;;;24.00;1.00;;;;;;5053623;28;20199;-62
2022/05/02 12:10:33;;;;;;;14.43;13.23;;;23.40;1.00;;;;;;5055161;28;20287;-63
2022/05/02 12:13:00;;;;;;;13.45;12.18;;;24.10;1.00;;;;;;5052164;28;20588;-62
2022/05/02 12:15:28;;;;;;;13.80;12.40;;;24.40;1.00;;;;;;5052533;28;20203;-62
2022/05/02 12:17:59;;;;;;;13.10;11.90;;;24.90;1.00;;;;;;5051935;28;20203;-63
2022/05/02 12:20:29;;;;;;;13.40;12.20;;;24.80;1.00;;;;;;5052361;28;20273;-61
2022/05/02 12:23:01;;;;;;;14.75;13.45;;;24.90;1.00;;;;;;5052314;28;20212;-62
2022/05/02 12:25:30;;;;;;;13.68;12.48;;;23.60;1.00;;;;;;5051645;28;20222;-63
2022/05/02 12:27:58;;;;;;;12.43;11.30;;;23.50;1.00;;;;;;5051963;28;20222;-63
2022/05/02 12:30:28;;;;;;;12.70;11.45;;;23.90;1.00;;;;;;5052211;28;20203;-63
2022/05/02 12:33:01;;;;;;;13.32;12.02;;;24.50;1.00;;;;;;5051898;28;20690;-63
2022/05/02 12:35:36;;;;;;;14.50;12.35;;;24.80;1.00;;;;;;5052283;28;20282;-63
2022/05/02 12:38:16;;;;;;;14.45;13.18;;;24.60;1.00;;;;;;5052116;28;20219;-63
2022/05/02 12:40:52;;;;;;;16.38;11.70;;;24.10;1.00;;;;;;5052080;28;20234;-63
2022/05/02 12:43:29;;;;;;;11.40;10.32;;;24.40;1.00;;;;;;5052149;28;20593;-63
2022/05/02 12:45:57;;;;;;;13.88;12.63;;;24.80;1.00;;;;;;5051879;28;20187;-63
2022/05/02 12:48:29;;;;;;;13.70;11.75;;;23.50;1.00;;;;;;5051079;28;20203;-63
2022/05/02 12:50:58;;;;;;;12.95;11.75;;;23.10;1.00;;;;;;5051618;28;20186;-63
2022/05/02 12:56:13;;;;;;;14.43;13.02;;;21.70;1.00;;;;;;5051929;28;20222;-63
2022/05/02 13:01:42;;;;;;;20.10;13.60;;;20.70;1.00;;;;;;5051888;28;20196;-63
2022/05/02 13:04:16;;;;;;;19.05;17.20;;;20.50;1.00;;;;;;5052069;28;20655;-63
2022/05/02 13:06:44;;;;;;;13.55;12.13;;;21.20;1.00;;;;;;5051494;28;20708;-63
2022/05/02 13:09:16;;;;;;;13.82;12.43;;;21.90;1.00;;;;;;5051503;28;20268;-63
2022/05/02 13:11:44;;;;;;;13.68;12.27;;;21.30;1.00;;;;;;5051761;28;20234;-64
2022/05/02 13:14:21;;;;;;;13.68;11.90;;;21.40;1.00;;;;;;5051475;28;20302;-63
2022/05/02 13:16:49;;;;;;;12.05;10.85;;;21.80;1.00;;;;;;5051770;28;20528;-63
2022/05/02 13:19:16;;;;;;;12.77;11.50;;;22.00;1.00;;;;;;5051324;28;20203;-63
2022/05/02 13:21:55;;;;;;;13.10;11.95;;;22.10;1.00;;;;;;5051692;28;20607;-61
2022/05/02 13:24:23;;;;;;;12.90;11.60;;;22.10;1.00;;;;;;5051402;28;20663;-62
2022/05/02 13:27:07;;;;;;;12.77;11.48;;;22.30;1.00;;;;;;5051696;28;20207;-62
2022/05/02 13:29:44;;;;;;;12.60;11.20;;;22.50;1.00;;;;;;5051462;28;20191;-65
2022/05/02 13:32:16;;;;;;;10.68;9.60;;;22.30;1.00;;;;;;5051590;28;20183;-62
2022/05/02 13:35:00;;;;;;;10.75;9.90;;;22.50;1.00;;;;;;5051426;28;20659;-62
2022/05/02 13:37:36;;;;;;;13.82;12.40;;;22.80;1.00;;;;;;5051521;28;20275;-63
2022/05/02 13:40:09;;;;;;;12.32;11.23;;;22.20;1.00;;;;;;5051361;28;20219;-62
2022/05/02 13:42:59;;;;;;;12.05;10.95;;;22.30;1.00;;;;;;5051182;28;20679;-62
2022/05/02 13:45:32;;;;;;;14.82;11.52;;;22.30;1.00;;;;;;5051120;28;20645;-62
2022/05/02 13:48:13;;;;;;;12.55;11.35;;;22.30;1.00;;;;;;5051341;28;20212;-62